| time (UTC) | temp C | wind direction | speed KPH | gust KPH | rain 1hr cm | rain 24hr cm | rain mn cm | humidity % | barometer mb |
| 20260502123054 | -2 | 0 | 0.0 | 0.0 | 0.00 | 0.03 | 0.00 | 85 | 1017.0 |
| 20260502121535 | -5 | 0 | 0.0 | 0.0 | 0.00 | 0.03 | 0.00 | 90 | 1017.2 |
| 20260502114543 | -7 | 0 | 0.0 | 0.0 | 0.00 | 0.03 | 0.00 | 93 | 1017.1 |
| 20260502113042 | -8 | 0 | 0.0 | 0.0 | 0.00 | 0.03 | 0.00 | 93 | 1017.1 |
| 20260502111542 | -8 | 0 | 0.0 | 0.0 | 0.00 | 0.03 | 0.00 | 92 | 1017.1 |
| 20260502110039 | -9 | 0 | 0.0 | 0.0 | 0.00 | 0.03 | 0.00 | 92 | 1017.0 |
| 20260502104543 | -9 | 0 | 0.0 | 0.0 | 0.00 | 0.03 | 0.00 | 92 | 1016.9 |
| 20260502103033 | -9 | 0 | 0.0 | 0.0 | 0.00 | 0.03 | 0.00 | 92 | 1017.1 |
| 20260502101550 | -9 | 0 | 0.0 | 0.0 | 0.00 | 0.03 | 0.00 | 91 | 1016.9 |
| 20260502070050 | -7 | 0 | 0.0 | 0.0 | 0.00 | 0.03 | 0.00 | 89 | 1017.1 |
| 20260502064542 | -7 | 0 | 0.0 | 0.0 | 0.00 | 0.03 | 0.00 | 88 | 1017.3 |
| 20260502063038 | -6 | 0 | 0.0 | 0.0 | 0.00 | 0.03 | 0.00 | 88 | 1017.3 |
| 20260502061537 | -6 | 0 | 0.0 | 0.0 | 0.00 | 0.03 | 0.00 | 87 | 1017.4 |
| 20260502060036 | -6 | 0 | 0.0 | 0.0 | 0.00 | 0.03 | 0.00 | 86 | 1017.3 |
| 20260502054544 | -6 | 0 | 0.0 | 0.0 | 0.00 | 0.03 | 0.00 | 85 | 1017.3 |
| 20260502053053 | -5 | 0 | 0.0 | 0.0 | 0.00 | 0.03 | 0.00 | 86 | 1017.4 |
| 20260502051540 | -5 | 0 | 0.0 | 0.0 | 0.00 | 0.03 | 0.00 | 84 | 1017.4 |
| 20260502050036 | -5 | 0 | 0.0 | 0.0 | 0.00 | 0.03 | 0.00 | 83 | 1017.5 |
| 20260502044536 | -5 | 0 | 0.0 | 0.0 | 0.00 | 0.03 | 0.00 | 82 | 1017.6 |
| 20260502043036 | -5 | 0 | 0.0 | 0.0 | 0.00 | 0.03 | 0.00 | 82 | 1017.6 |
| 20260502041542 | -5 | 0 | 0.0 | 0.0 | 0.00 | 0.03 | 0.00 | 81 | 1017.6 |
| 20260502040044 | -4 | 0 | 0.0 | 0.0 | 0.00 | 0.03 | 0.00 | 78 | 1017.6 |
| 20260502034537 | -4 | 0 | 0.0 | 0.0 | 0.00 | 0.03 | 0.03 | 78 | 1017.5 |
| 20260502033037 | -3 | 0 | 0.0 | 0.0 | 0.00 | 0.03 | 0.03 | 76 | 1017.6 |
| 20260502031538 | -3 | 0 | 0.0 | 0.0 | 0.00 | 0.03 | 0.03 | 75 | 1017.7 |
| 20260502030050 | -3 | 0 | 0.0 | 0.0 | 0.00 | 0.03 | 0.03 | 74 | 1017.6 |
| 20260502024544 | -3 | 0 | 0.0 | 0.0 | 0.00 | 0.03 | 0.03 | 72 | 1017.8 |
| 20260502023052 | -2 | 0 | 0.0 | 0.0 | 0.00 | 0.03 | 0.03 | 68 | 1017.7 |
| 20260502021542 | -1 | 0 | 0.0 | 0.0 | 0.00 | 0.03 | 0.03 | 65 | 1017.7 |
| 20260502020037 | -1 | 0 | 0.0 | 0.0 | 0.00 | 0.03 | 0.03 | 61 | 1017.5 |
| 20260502014540 | 0 | 0 | 0.0 | 0.0 | 0.00 | 0.03 | 0.03 | 59 | 1017.5 |
| 20260502013041 | 0 | 0 | 0.0 | 0.0 | 0.00 | 0.03 | 0.03 | 56 | 1017.5 |
| 20260502011543 | 1 | 0 | 0.0 | 3.2 | 0.00 | 0.03 | 0.03 | 53 | 1017.4 |
| 20260502010038 | 1 | 0 | 0.0 | 0.0 | 0.00 | 0.03 | 0.03 | 51 | 1017.3 |
| 20260502004600 | 2 | 237 | 0.0 | 1.6 | 0.00 | 0.03 | 0.03 | 47 | 1017.3 |
| 20260502003040 | 3 | 237 | 0.0 | 3.2 | 0.00 | 0.03 | 0.03 | 47 | 1017.1 |
| 20260502001536 | 3 | 0 | 0.0 | 3.2 | 0.00 | 0.03 | 0.03 | 44 | 1017.1 |
| 20260502000042 | 4 | 237 | 0.0 | 3.2 | 0.00 | 0.03 | 0.03 | 43 | 1017.0 |
| 20260501234538 | 3 | 237 | 0.0 | 6.4 | 0.00 | 0.03 | 0.03 | 43 | 1017.0 |
| 20260501233036 | 5 | 237 | 1.6 | 6.4 | 0.00 | 0.03 | 0.03 | 41 | 1016.7 |
| 20260501231537 | 3 | 237 | 1.6 | 6.4 | 0.00 | 0.03 | 0.03 | 44 | 1016.7 |
| 20260501230037 | 4 | 0 | 1.6 | 6.4 | 0.00 | 0.03 | 0.03 | 45 | 1016.7 |
| 20260501224549 | 3 | 237 | 0.0 | 4.8 | 0.00 | 0.03 | 0.03 | 45 | 1016.8 |
| 20260501223051 | 4 | 237 | 0.0 | 3.2 | 0.00 | 0.03 | 0.03 | 46 | 1016.6 |
| 20260501221537 | 4 | 237 | 1.6 | 4.8 | 0.00 | 0.03 | 0.03 | 46 | 1016.7 |
| 20260501220037 | 5 | 238 | 1.6 | 6.4 | 0.00 | 0.03 | 0.03 | 47 | 1016.6 |
| 20260501214536 | 3 | 0 | 0.0 | 1.6 | 0.00 | 0.03 | 0.03 | 49 | 1016.5 |
| 20260501213042 | 4 | 237 | 0.0 | 4.8 | 0.00 | 0.03 | 0.03 | 48 | 1016.4 |
| 20260501211543 | 5 | 237 | 1.6 | 4.8 | 0.00 | 0.03 | 0.03 | 47 | 1016.6 |
| 20260501210036 | 3 | 0 | 0.0 | 8.0 | 0.00 | 0.03 | 0.03 | 49 | 1016.5 |
| 20260501204540 | 3 | 237 | 0.0 | 3.2 | 0.00 | 0.03 | 0.03 | 49 | 1016.4 |
| 20260501203056 | 3 | 238 | 1.6 | 3.2 | 0.00 | 0.03 | 0.03 | 50 | 1016.6 |
| 20260501201546 | 3 | 237 | 1.6 | 11.3 | 0.00 | 0.03 | 0.03 | 51 | 1016.6 |
| 20260501200040 | 3 | 237 | 1.6 | 3.2 | 0.00 | 0.03 | 0.03 | 51 | 1016.7 |
| 20260501194538 | 3 | 237 | 0.0 | 3.2 | 0.00 | 0.10 | 0.03 | 56 | 1016.7 |
| 20260501193037 | 3 | 237 | 0.0 | 4.8 | 0.00 | 0.10 | 0.03 | 54 | 1016.6 |
| 20260501191536 | 3 | 237 | 0.0 | 4.8 | 0.00 | 0.10 | 0.03 | 52 | 1016.5 |
| 20260501190043 | 3 | 237 | 0.0 | 4.8 | 0.00 | 0.10 | 0.03 | 53 | 1016.5 |
| 20260501184600 | 2 | 237 | 1.6 | 6.4 | 0.00 | 0.15 | 0.03 | 54 | 1016.5 |
| 20260501183042 | 2 | 237 | 0.0 | 3.2 | 0.03 | 0.15 | 0.03 | 58 | 1016.5 |
| 20260501181539 | 2 | 237 | 1.6 | 3.2 | 0.03 | 0.15 | 0.03 | 59 | 1016.6 |
| 20260501180044 | 2 | 237 | 0.0 | 3.2 | 0.03 | 0.15 | 0.03 | 60 | 1016.5 |
| 20260501174550 | 2 | 237 | 0.0 | 6.4 | 0.03 | 0.25 | 0.03 | 58 | 1016.4 |
| 20260501173037 | 2 | 237 | 1.6 | 6.4 | 0.00 | 0.23 | 0.00 | 59 | 1016.5 |
| 20260501171537 | 2 | 238 | 1.6 | 4.8 | 0.00 | 0.23 | 0.00 | 58 | 1016.5 |
| 20260501170038 | 2 | 237 | 1.6 | 6.4 | 0.00 | 0.23 | 0.00 | 60 | 1016.6 |
| 20260501164556 | 2 | 237 | 1.6 | 8.0 | 0.00 | 0.28 | 0.00 | 62 | 1016.4 |
| 20260501163046 | 1 | 237 | 1.6 | 6.4 | 0.00 | 0.28 | 0.00 | 65 | 1016.4 |
| 20260501161541 | 1 | 238 | 1.6 | 6.4 | 0.00 | 0.28 | 0.00 | 67 | 1016.3 |
| 20260501160038 | 1 | 237 | 3.2 | 9.7 | 0.00 | 0.28 | 0.00 | 69 | 1016.2 |
| 20260501154542 | 1 | 237 | 1.6 | 6.4 | 0.00 | 0.28 | 0.00 | 72 | 1016.3 |
| 20260501153039 | 1 | 237 | 1.6 | 8.0 | 0.00 | 0.28 | 0.00 | 72 | 1016.3 |
| 20260501151541 | 1 | 237 | 0.0 | 3.2 | 0.00 | 0.28 | 0.00 | 72 | 1016.1 |
| 20260501150046 | 0 | 237 | 1.6 | 6.4 | 0.00 | 0.28 | 0.00 | 74 | 1016.2 |
| 20260501144546 | 0 | 237 | 0.0 | 3.2 | 0.00 | 0.28 | 0.00 | 76 | 1016.3 |
| 20260501143038 | 0 | 0 | 1.6 | 8.0 | 0.00 | 0.28 | 0.00 | 78 | 1016.2 |
| 20260501141537 | 0 | 237 | 1.6 | 4.8 | 0.00 | 0.28 | 0.00 | 79 | 1016.1 |